createdAt,value
2019-01-26T00:00:31.342Z,3.90
2019-01-26T00:02:59.874Z,3.90
2019-01-26T00:05:28.381Z,3.30
2019-01-26T00:07:56.850Z,4.40
2019-01-26T00:10:25.289Z,3.23
2019-01-26T00:12:53.733Z,3.20
2019-01-26T00:15:22.330Z,3.20
2019-01-26T00:17:50.786Z,5.10
2019-01-26T00:20:19.318Z,4.00
2019-01-26T00:22:47.762Z,7.43
2019-01-26T00:25:16.230Z,3.37
2019-01-26T00:27:44.681Z,3.30
2019-01-26T00:30:15.250Z,3.87
2019-01-26T00:32:43.711Z,5.47
2019-01-26T00:35:12.398Z,3.87
2019-01-26T00:37:40.936Z,3.13
2019-01-26T00:40:11.517Z,3.07
2019-01-26T00:42:39.965Z,4.83
2019-01-26T00:45:11.430Z,3.80
2019-01-26T00:47:40.017Z,5.73
2019-01-26T00:50:13.450Z,3.97
2019-01-26T00:52:41.898Z,4.87
2019-01-26T00:55:10.899Z,6.60
2019-01-26T00:57:39.424Z,3.67
2019-01-26T01:00:16.430Z,3.87
2019-01-26T01:02:45.058Z,3.43
2019-01-26T01:05:14.050Z,3.10
2019-01-26T01:07:42.669Z,3.83
2019-01-26T01:10:16.898Z,2.80
2019-01-26T01:12:45.731Z,4.63
2019-01-26T01:15:19.690Z,2.53
2019-01-26T01:17:48.274Z,2.53
2019-01-26T01:20:17.176Z,3.13
2019-01-26T01:22:45.624Z,2.83
2019-01-26T01:25:14.729Z,3.80
2019-01-26T01:27:43.245Z,4.57
2019-01-26T01:30:19.915Z,2.50
2019-01-26T01:32:48.356Z,3.27
2019-01-26T01:35:17.166Z,3.47
2019-01-26T01:37:45.630Z,3.47
2019-01-26T01:40:16.643Z,3.43
2019-01-26T01:42:45.245Z,3.73
2019-01-26T01:45:16.625Z,5.07
2019-01-26T01:47:45.293Z,5.17
2019-01-26T01:50:14.505Z,2.33
2019-01-26T01:52:43.222Z,3.20
2019-01-26T01:55:11.824Z,3.70
2019-01-26T01:57:40.406Z,2.60
2019-01-26T02:00:20.444Z,2.77
2019-01-26T02:02:48.879Z,3.30
2019-01-26T02:05:17.545Z,3.17
2019-01-26T02:07:46.104Z,2.60
2019-01-26T02:10:20.039Z,2.20
2019-01-26T02:12:48.565Z,2.40
2019-01-26T02:15:17.080Z,2.20
2019-01-26T02:17:45.622Z,3.03
2019-01-26T02:20:20.055Z,2.30
2019-01-26T02:22:48.766Z,2.80
2019-01-26T02:25:17.351Z,3.37
2019-01-26T02:27:45.807Z,2.27
2019-01-26T02:30:19.521Z,3.13
2019-01-26T02:32:48.042Z,1.80
2019-01-26T02:35:16.737Z,2.43
2019-01-26T02:37:45.249Z,2.80
2019-01-26T02:40:15.847Z,1.73
2019-01-26T02:42:44.427Z,3.20
2019-01-26T02:45:14.622Z,2.17
2019-01-26T02:47:43.419Z,2.60
2019-01-26T02:50:17.138Z,3.00
2019-01-26T02:52:45.729Z,1.70
2019-01-26T02:55:14.996Z,2.23
2019-01-26T02:57:43.525Z,2.40
2019-01-26T03:00:20.303Z,2.00
2019-01-26T03:02:48.822Z,2.60
2019-01-26T03:05:17.708Z,3.40
2019-01-26T03:07:46.307Z,2.50
2019-01-26T03:10:17.763Z,2.23
2019-01-26T03:12:46.243Z,2.60
2019-01-26T03:15:17.798Z,5.83
2019-01-26T03:17:46.408Z,5.00
2019-01-26T03:20:16.355Z,6.73
2019-01-26T03:22:44.905Z,7.20
2019-01-26T03:25:15.118Z,6.67
2019-01-26T03:27:43.621Z,8.10
2019-01-26T03:30:20.299Z,5.90
2019-01-26T03:32:48.817Z,5.83
2019-01-26T03:35:17.279Z,8.27
2019-01-26T03:37:45.895Z,12.43
2019-01-26T03:40:17.456Z,8.20
2019-01-26T03:42:45.995Z,7.10
2019-01-26T03:45:15.861Z,6.00
2019-01-26T03:47:44.450Z,7.23
2019-01-26T03:50:15.355Z,5.50
2019-01-26T03:52:43.956Z,9.83
2019-01-26T03:55:18.139Z,6.93
2019-01-26T03:57:46.821Z,10.10
2019-01-26T04:00:18.410Z,7.00
2019-01-26T04:02:47.002Z,6.13
2019-01-26T04:05:15.699Z,8.10
2019-01-26T04:07:44.295Z,6.37
2019-01-26T04:10:14.901Z,4.93
2019-01-26T04:12:43.812Z,5.70
2019-01-26T04:15:14.821Z,6.37
2019-01-26T04:17:43.275Z,5.90
2019-01-26T04:20:14.841Z,6.03
2019-01-26T04:22:43.447Z,5.23
2019-01-26T04:25:12.218Z,10.50
2019-01-26T04:27:40.678Z,7.90
2019-01-26T04:30:12.411Z,7.40
2019-01-26T04:32:40.941Z,5.93
2019-01-26T04:35:10.425Z,8.90
2019-01-26T04:37:38.878Z,5.83
2019-01-26T04:40:10.249Z,6.47
2019-01-26T04:42:38.834Z,7.90
2019-01-26T04:45:13.043Z,9.17
2019-01-26T04:47:41.558Z,5.17
2019-01-26T04:50:12.926Z,7.87
2019-01-26T04:52:41.446Z,7.07
2019-01-26T04:55:10.132Z,8.60
2019-01-26T04:57:38.741Z,9.07
2019-01-26T05:00:15.871Z,6.13
2019-01-26T05:02:44.403Z,6.33
2019-01-26T05:05:13.100Z,8.60
2019-01-26T05:07:41.564Z,8.60
2019-01-26T05:10:13.217Z,7.37
2019-01-26T05:12:41.762Z,17.97
2019-01-26T05:15:12.453Z,8.90
2019-01-26T05:17:40.981Z,8.70
2019-01-26T05:20:15.050Z,8.43
2019-01-26T05:22:43.663Z,12.93
2019-01-26T05:25:12.249Z,10.57
2019-01-26T05:27:40.694Z,7.63
2019-01-26T05:30:12.229Z,9.60
2019-01-26T05:32:40.678Z,11.63
2019-01-26T05:35:09.294Z,8.50
2019-01-26T05:37:37.737Z,10.93
2019-01-26T05:40:14.895Z,16.57
2019-01-26T05:42:43.351Z,22.63
2019-01-26T05:45:15.126Z,9.43
2019-01-26T05:47:48.871Z,11.10
2019-01-26T05:50:16.851Z,11.20
2019-01-26T05:52:45.522Z,9.87
2019-01-26T05:55:14.323Z,6.10
2019-01-26T05:57:42.785Z,9.60
2019-01-26T06:00:21.580Z,19.90
2019-01-26T06:02:50.121Z,11.73
2019-01-26T06:05:18.647Z,17.70
2019-01-26T06:07:47.177Z,10.77
2019-01-26T06:10:15.692Z,10.23
2019-01-26T06:12:44.226Z,14.60
2019-01-26T06:15:13.123Z,11.80
2019-01-26T06:17:41.656Z,13.07
2019-01-26T06:20:12.706Z,9.70
2019-01-26T06:22:41.161Z,8.43
2019-01-26T06:25:12.651Z,15.53
2019-01-26T06:27:41.334Z,7.33
2019-01-26T06:30:18.277Z,10.70
2019-01-26T06:32:46.886Z,14.47
2019-01-26T06:35:15.408Z,11.70
2019-01-26T06:37:44.007Z,9.73
2019-01-26T06:40:15.209Z,10.77
2019-01-26T06:42:43.656Z,18.03
2019-01-26T06:45:14.357Z,22.33
2019-01-26T06:47:42.949Z,12.30
2019-01-26T06:50:14.487Z,11.47
2019-01-26T06:52:43.009Z,10.77
2019-01-26T06:55:11.997Z,12.87
2019-01-26T06:57:40.461Z,17.33
2019-01-26T07:00:12.004Z,24.00
2019-01-26T07:02:40.683Z,21.27
2019-01-26T07:05:11.818Z,16.30
2019-01-26T07:07:40.282Z,14.33
2019-01-26T07:10:10.081Z,14.63
2019-01-26T07:12:38.615Z,15.70
2019-01-26T07:15:10.147Z,13.30
2019-01-26T07:17:38.606Z,13.40
2019-01-26T07:20:10.175Z,14.80
2019-01-26T07:22:38.622Z,15.93
2019-01-26T07:25:08.506Z,12.23
2019-01-26T07:27:37.151Z,12.13
2019-01-26T07:30:16.985Z,20.53
2019-01-26T07:32:45.441Z,16.03
2019-01-26T07:35:14.068Z,16.07
2019-01-26T07:37:42.590Z,17.33
2019-01-26T07:40:14.477Z,21.80
2019-01-26T07:42:43.014Z,16.57
2019-01-26T07:45:12.702Z,16.70
2019-01-26T07:47:41.166Z,18.87
2019-01-26T07:50:14.011Z,17.40
2019-01-26T07:52:44.505Z,17.10
2019-01-26T07:55:14.566Z,16.57
2019-01-26T07:57:43.104Z,15.47
2019-01-26T08:00:17.292Z,20.37
2019-01-26T08:02:45.822Z,17.30
2019-01-26T08:05:14.402Z,14.10
2019-01-26T08:07:42.940Z,14.53
2019-01-26T08:10:13.926Z,26.60
2019-01-26T08:12:42.522Z,13.23
2019-01-26T08:15:13.937Z,12.53
2019-01-26T08:17:42.390Z,11.90
2019-01-26T08:20:13.998Z,13.50
2019-01-26T08:22:42.445Z,13.43
2019-01-26T08:25:11.055Z,12.60
2019-01-26T08:27:39.491Z,9.90
2019-01-26T08:30:11.038Z,11.97
2019-01-26T08:32:39.554Z,14.03
2019-01-26T08:35:08.493Z,12.80
2019-01-26T08:37:37.017Z,17.03
2019-01-26T08:40:08.851Z,11.90
2019-01-26T08:42:37.324Z,10.70
2019-01-26T08:45:08.921Z,14.30
2019-01-26T08:47:37.394Z,14.17
2019-01-26T08:50:09.117Z,15.20
2019-01-26T08:52:37.581Z,10.13
2019-01-26T08:55:08.877Z,13.83
2019-01-26T08:57:37.406Z,12.73
2019-01-26T09:00:09.197Z,20.43
2019-01-26T09:02:42.007Z,18.20
2019-01-26T09:05:11.238Z,26.83
2019-01-26T09:07:39.697Z,16.80
2019-01-26T09:10:08.416Z,20.27
2019-01-26T09:12:36.896Z,30.67
2019-01-26T09:15:08.507Z,22.17
2019-01-26T09:17:37.115Z,20.63
2019-01-26T09:20:08.770Z,17.87
2019-01-26T09:22:37.269Z,12.53
2019-01-26T09:25:08.933Z,25.13
2019-01-26T09:27:37.869Z,15.30
2019-01-26T09:30:12.520Z,18.50
2019-01-26T09:32:40.961Z,15.90
2019-01-26T09:35:09.721Z,15.33
2019-01-26T09:37:38.282Z,26.63
2019-01-26T09:40:15.671Z,23.13
2019-01-26T09:42:44.199Z,18.97
2019-01-26T09:45:16.162Z,18.67
2019-01-26T09:47:45.194Z,13.87
2019-01-26T09:50:14.585Z,14.53
2019-01-26T09:52:43.109Z,12.87
2019-01-26T09:55:13.412Z,13.67
2019-01-26T09:57:41.854Z,11.30
2019-01-26T10:00:15.978Z,20.20
2019-01-26T10:02:44.492Z,20.93
2019-01-26T10:05:13.194Z,14.47
2019-01-26T10:07:41.722Z,24.20
2019-01-26T10:10:15.493Z,13.40
2019-01-26T10:12:44.022Z,14.10
2019-01-26T10:15:15.713Z,15.97
2019-01-26T10:17:46.069Z,15.37
2019-01-26T10:20:20.318Z,15.33
2019-01-26T10:22:48.869Z,23.27
2019-01-26T10:25:18.254Z,14.53
2019-01-26T10:27:46.782Z,14.13
2019-01-26T10:30:22.316Z,21.90
2019-01-26T10:32:50.821Z,25.43
2019-01-26T10:35:19.401Z,10.87
2019-01-26T10:37:47.862Z,14.73
2019-01-26T10:40:24.033Z,30.97
2019-01-26T10:42:52.487Z,11.73
2019-01-26T10:45:20.923Z,10.70
2019-01-26T10:47:49.379Z,10.50
2019-01-26T10:50:17.826Z,9.70
2019-01-26T10:52:46.271Z,11.93
2019-01-26T10:55:16.837Z,13.30
2019-01-26T10:57:45.350Z,13.60
2019-01-26T11:00:20.377Z,13.10
2019-01-26T11:02:49.057Z,16.07
2019-01-26T11:05:17.655Z,13.97
2019-01-26T11:07:46.102Z,11.83
2019-01-26T11:10:16.098Z,12.30
2019-01-26T11:12:44.735Z,22.30
2019-01-26T11:15:13.848Z,12.03
2019-01-26T11:17:42.365Z,10.87
2019-01-26T11:20:13.417Z,13.93
2019-01-26T11:22:41.878Z,15.20
2019-01-26T11:25:14.241Z,16.87
2019-01-26T11:27:42.833Z,12.33
2019-01-26T11:30:19.883Z,9.57
2019-01-26T11:32:48.405Z,16.73
2019-01-26T11:35:18.763Z,14.23
2019-01-26T11:37:47.231Z,9.80
2019-01-26T11:40:17.446Z,13.10
2019-01-26T11:42:46.273Z,8.80
2019-01-26T11:45:29.765Z,10.43
2019-01-26T11:47:59.865Z,11.40
2019-01-26T11:50:46.634Z,11.67
2019-01-26T11:53:15.092Z,8.60
2019-01-26T11:55:45.194Z,11.40
2019-01-26T11:58:13.641Z,9.07
2019-01-26T12:01:02.996Z,9.97
2019-01-26T12:03:33.150Z,11.67
2019-01-26T12:06:03.301Z,9.43
2019-01-26T12:08:31.755Z,11.07
2019-01-26T12:11:00.195Z,18.63
2019-01-26T12:13:28.643Z,8.03
2019-01-26T12:15:57.094Z,9.40
2019-01-26T12:18:25.617Z,5.50
2019-01-26T12:20:54.066Z,7.10
2019-01-26T12:23:22.594Z,6.43
2019-01-26T12:25:51.038Z,6.40
2019-01-26T12:28:19.567Z,5.17
2019-01-26T12:30:48.021Z,8.43
2019-01-26T12:33:16.526Z,9.90
2019-01-26T12:35:44.982Z,10.43
2019-01-26T12:38:13.561Z,8.30
2019-01-26T12:40:42.068Z,7.07
2019-01-26T12:43:10.526Z,18.90
2019-01-26T12:45:39.105Z,6.53
2019-01-26T12:48:07.699Z,8.97
2019-01-26T12:50:42.897Z,12.27
2019-01-26T12:53:11.429Z,10.83
2019-01-26T12:55:39.878Z,9.80
2019-01-26T12:58:08.436Z,8.57
2019-01-26T13:00:36.919Z,15.13
2019-01-26T13:03:05.595Z,12.20
2019-01-26T13:05:34.123Z,25.63
2019-01-26T13:08:02.636Z,18.23
2019-01-26T13:10:34.501Z,17.77
2019-01-26T13:13:03.103Z,18.80
2019-01-26T13:15:31.683Z,13.20
2019-01-26T13:18:00.213Z,12.73
2019-01-26T13:20:28.790Z,12.20
2019-01-26T13:22:57.316Z,15.73
2019-01-26T13:25:26.002Z,11.53
2019-01-26T13:27:54.439Z,15.00
2019-01-26T13:30:24.134Z,12.50
2019-01-26T13:32:52.645Z,14.70
2019-01-26T13:35:21.194Z,10.13
2019-01-26T13:37:49.698Z,13.20
2019-01-26T13:40:24.197Z,17.30
2019-01-26T13:42:52.714Z,24.13
2019-01-26T13:45:21.225Z,17.90
2019-01-26T13:47:49.741Z,15.00
2019-01-26T13:50:18.250Z,15.27
2019-01-26T13:52:46.758Z,11.10
2019-01-26T13:55:22.416Z,13.43
2019-01-26T13:57:51.002Z,16.20
2019-01-26T14:00:25.056Z,14.57
2019-01-26T14:02:53.573Z,14.30
2019-01-26T14:05:22.265Z,14.83
2019-01-26T14:07:50.975Z,14.73
2019-01-26T14:10:22.442Z,15.60
2019-01-26T14:12:51.042Z,17.93
2019-01-26T14:15:21.424Z,13.30
2019-01-26T14:17:49.952Z,17.47
2019-01-26T14:20:28.561Z,16.27
2019-01-26T14:22:57.023Z,25.33
2019-01-26T14:25:26.750Z,22.10
2019-01-26T14:27:55.263Z,24.50
2019-01-26T14:30:35.695Z,21.93
2019-01-26T14:33:04.994Z,22.80
2019-01-26T14:35:33.614Z,18.10
2019-01-26T14:38:02.203Z,20.93
2019-01-26T14:40:30.794Z,26.23
2019-01-26T14:42:59.309Z,21.53
2019-01-26T14:45:29.193Z,16.93
2019-01-26T14:47:57.877Z,23.93
2019-01-26T14:50:26.389Z,24.70
2019-01-26T14:52:55.187Z,28.93
2019-01-26T14:55:26.349Z,30.63
2019-01-26T14:57:54.874Z,20.03
2019-01-26T15:00:38.971Z,23.20
2019-01-26T15:03:07.567Z,29.77
2019-01-26T15:05:36.447Z,19.50
2019-01-26T15:08:05.229Z,25.33
2019-01-26T15:10:33.753Z,26.30
2019-01-26T15:13:02.333Z,25.07
2019-01-26T15:15:30.843Z,24.03
2019-01-26T15:17:59.425Z,23.43
2019-01-26T15:20:30.819Z,21.80
2019-01-26T15:22:59.346Z,20.47
2019-01-26T15:25:28.009Z,32.87
2019-01-26T15:27:56.513Z,29.17
2019-01-26T15:30:30.807Z,26.43
2019-01-26T15:32:59.435Z,22.27
2019-01-26T15:35:27.952Z,28.30
2019-01-26T15:37:56.579Z,24.10
2019-01-26T15:40:25.174Z,24.30
2019-01-26T15:42:53.706Z,31.83
2019-01-26T15:45:25.263Z,23.03
2019-01-26T15:47:53.719Z,32.67
2019-01-26T15:50:22.246Z,30.03
2019-01-26T15:52:50.774Z,33.47
2019-01-26T15:55:21.854Z,22.67
2019-01-26T15:57:50.373Z,21.53
2019-01-26T16:00:21.646Z,21.63
2019-01-26T16:02:50.094Z,26.07
2019-01-26T16:05:18.690Z,38.33
2019-01-26T16:07:47.378Z,26.50
2019-01-26T16:10:18.183Z,25.33
2019-01-26T16:12:46.702Z,20.30
2019-01-26T16:15:17.857Z,29.40
2019-01-26T16:18:05.133Z,24.57
2019-01-26T16:20:33.674Z,34.67
2019-01-26T16:23:09.074Z,22.60
2019-01-26T16:25:32.383Z,22.93
2019-01-26T16:28:00.867Z,25.57
2019-01-26T16:30:31.446Z,27.50
2019-01-26T16:32:59.902Z,25.30
2019-01-26T16:35:28.575Z,24.30
2019-01-26T16:37:57.179Z,28.03
2019-01-26T16:40:30.958Z,27.23
2019-01-26T16:42:59.625Z,30.63
2019-01-26T16:45:30.602Z,26.53
2019-01-26T16:47:59.139Z,35.03
2019-01-26T16:50:29.523Z,26.67
2019-01-26T16:52:58.129Z,24.20
2019-01-26T16:55:26.649Z,26.00
2019-01-26T16:57:55.258Z,27.27
2019-01-26T17:00:38.210Z,26.80
2019-01-26T17:03:06.689Z,25.17
2019-01-26T17:05:35.293Z,26.03
2019-01-26T17:08:04.513Z,25.13
2019-01-26T17:10:34.312Z,33.13
2019-01-26T17:13:03.293Z,29.53
2019-01-26T17:15:31.827Z,23.03
2019-01-26T17:18:00.350Z,25.67
2019-01-26T17:20:40.035Z,25.87
2019-01-26T17:23:08.660Z,21.87
2019-01-26T17:25:37.193Z,33.93
2019-01-26T17:28:05.705Z,36.53
2019-01-26T17:30:39.410Z,33.10
2019-01-26T17:33:08.280Z,22.13
2019-01-26T17:35:37.217Z,22.87
2019-01-26T17:38:06.606Z,24.77
2019-01-26T17:40:35.242Z,23.33
2019-01-26T17:43:03.776Z,35.10
2019-01-26T17:45:32.363Z,29.77
2019-01-26T17:48:00.912Z,25.20
2019-01-26T17:50:30.006Z,25.93
2019-01-26T17:52:58.538Z,29.27
2019-01-26T17:55:26.995Z,30.70
2019-01-26T17:57:55.437Z,28.07
2019-01-26T18:00:36.122Z,59.17
2019-01-26T18:03:04.910Z,22.10
2019-01-26T18:05:33.448Z,29.43
2019-01-26T18:08:01.899Z,28.33
2019-01-26T18:10:30.510Z,42.27
2019-01-26T18:12:58.957Z,27.17
2019-01-26T18:15:27.421Z,30.50
2019-01-26T18:17:55.943Z,40.70
2019-01-26T18:20:26.557Z,33.10
2019-01-26T18:22:55.165Z,31.90
2019-01-26T18:25:25.402Z,29.50
2019-01-26T18:27:53.871Z,43.50
2019-01-26T18:30:29.978Z,31.60
2019-01-26T18:32:58.438Z,29.93
2019-01-26T18:35:27.220Z,45.03
2019-01-26T18:37:55.761Z,32.30
2019-01-26T18:40:26.245Z,32.67
2019-01-26T18:42:55.147Z,32.40
2019-01-26T18:45:25.834Z,30.40
2019-01-26T18:47:54.442Z,33.43
2019-01-26T18:50:25.410Z,30.70
2019-01-26T18:52:54.022Z,27.00
2019-01-26T18:55:22.607Z,30.53
2019-01-26T18:57:51.174Z,38.93
2019-01-26T19:00:31.720Z,34.27
2019-01-26T19:03:08.531Z,26.97
2019-01-26T19:05:39.114Z,27.67
2019-01-26T19:08:08.030Z,41.83
2019-01-26T19:10:36.563Z,34.77
2019-01-26T19:13:05.105Z,30.23
2019-01-26T19:15:33.554Z,34.97
2019-01-26T19:18:02.014Z,35.50
2019-01-26T19:20:30.474Z,27.40
2019-01-26T19:22:59.294Z,29.30
2019-01-26T19:25:27.768Z,27.40
2019-01-26T19:27:56.288Z,39.03
2019-01-26T19:30:24.994Z,31.47
2019-01-26T19:32:54.374Z,28.10
2019-01-26T19:35:23.143Z,31.70
2019-01-26T19:37:51.606Z,26.47
2019-01-26T19:40:22.319Z,34.63
2019-01-26T19:42:50.994Z,31.80
2019-01-26T19:45:20.793Z,29.10
2019-01-26T19:47:49.472Z,28.33
2019-01-26T19:50:22.693Z,27.87
2019-01-26T19:52:51.227Z,26.93
2019-01-26T19:55:21.889Z,22.70
2019-01-26T19:57:50.487Z,24.27
2019-01-26T20:00:19.202Z,30.97
2019-01-26T20:02:47.710Z,26.40
2019-01-26T20:05:18.887Z,25.70
2019-01-26T20:07:47.685Z,32.23
2019-01-26T20:10:17.048Z,32.17
2019-01-26T20:12:45.674Z,31.13
2019-01-26T20:15:20.114Z,29.00
2019-01-26T20:17:48.631Z,31.13
2019-01-26T20:20:26.316Z,38.27
2019-01-26T20:22:54.825Z,35.43
2019-01-26T20:25:23.362Z,37.87
2019-01-26T20:27:51.887Z,36.97
2019-01-26T20:30:23.465Z,34.63
2019-01-26T20:32:51.934Z,31.23
2019-01-26T20:35:20.462Z,33.67
2019-01-26T20:37:49.163Z,32.83
2019-01-26T20:40:18.691Z,25.00
2019-01-26T20:42:47.230Z,29.00
2019-01-26T20:45:21.618Z,27.13
2019-01-26T20:47:50.234Z,26.37
2019-01-26T20:50:18.825Z,22.43
2019-01-26T20:52:47.363Z,22.93
2019-01-26T20:55:15.968Z,24.70
2019-01-26T20:57:44.486Z,26.77
2019-01-26T21:00:27.742Z,24.00
2019-01-26T21:02:56.288Z,24.40
2019-01-26T21:05:24.874Z,23.80
2019-01-26T21:07:53.467Z,28.30
2019-01-26T21:10:24.655Z,24.87
2019-01-26T21:12:53.242Z,25.27
2019-01-26T21:15:21.782Z,24.10
2019-01-26T21:17:50.305Z,21.43
2019-01-26T21:20:24.186Z,20.03
2019-01-26T21:22:52.798Z,19.57
2019-01-26T21:25:21.389Z,27.60
2019-01-26T21:27:49.858Z,17.83
2019-01-26T21:30:20.973Z,18.13
2019-01-26T21:32:49.513Z,28.47
2019-01-26T21:35:18.122Z,33.43
2019-01-26T21:37:46.591Z,39.03
2019-01-26T21:40:18.117Z,23.80
2019-01-26T21:42:46.646Z,23.87
2019-01-26T21:45:16.743Z,21.13
2019-01-26T21:47:45.351Z,16.90
2019-01-26T21:50:16.943Z,16.00
2019-01-26T21:52:45.474Z,8.83
2019-01-26T21:55:13.997Z,8.57
2019-01-26T21:57:42.518Z,7.50
2019-01-26T22:00:14.451Z,13.47
2019-01-26T22:02:42.982Z,5.90
2019-01-26T22:05:12.170Z,6.83
2019-01-26T22:07:40.708Z,6.67
2019-01-26T22:10:12.582Z,14.93
2019-01-26T22:12:41.102Z,9.73
2019-01-26T22:15:12.406Z,11.00
2019-01-26T22:17:40.853Z,11.30
2019-01-26T22:20:17.869Z,12.70
2019-01-26T22:22:47.176Z,10.43
2019-01-26T22:25:15.750Z,7.87
2019-01-26T22:27:44.281Z,8.50
2019-01-26T22:30:24.250Z,6.43
2019-01-26T22:32:52.710Z,8.80
2019-01-26T22:35:21.439Z,6.77
2019-01-26T22:37:50.003Z,4.50
2019-01-26T22:40:21.272Z,5.30
2019-01-26T22:42:49.873Z,6.87
2019-01-26T22:45:18.473Z,5.20
2019-01-26T22:47:46.949Z,3.40
2019-01-26T22:50:20.617Z,3.23
2019-01-26T22:52:49.207Z,1.40
2019-01-26T22:55:20.189Z,3.57
2019-01-26T22:57:49.040Z,8.70
2019-01-26T23:00:50.042Z,7.03
2019-01-26T23:03:27.235Z,5.40
2019-01-26T23:06:13.655Z,8.70
2019-01-26T23:08:42.089Z,9.40
2019-01-26T23:11:22.655Z,6.17
2019-01-26T23:13:57.158Z,7.80
2019-01-26T23:16:43.874Z,8.20
2019-01-26T23:19:15.398Z,9.20
2019-01-26T23:22:05.133Z,21.57
2019-01-26T23:24:59.434Z,19.90
2019-01-26T23:27:33.560Z,28.03
2019-01-26T23:30:24.590Z,23.10
2019-01-26T23:32:53.085Z,21.33
2019-01-26T23:35:21.714Z,20.93
2019-01-26T23:37:50.179Z,21.57
2019-01-26T23:40:19.091Z,21.73
2019-01-26T23:42:47.557Z,23.50
2019-01-26T23:45:16.149Z,24.90
2019-01-26T23:47:44.618Z,15.80
2019-01-26T23:50:13.142Z,18.40
2019-01-26T23:52:41.606Z,16.60
2019-01-26T23:55:10.895Z,15.47
2019-01-26T23:57:39.430Z,20.97
